Time;durP1;ratioP1;P1;durP2;ratioP2;P2;SDS_P1;SDS_P2;PMS_P1;PMS_P2;Temp;Humidity;BMP_temperature;BMP_pressure;BME280_temperature;BME280_humidity;BME280_pressure;Samples;Min_cycle;Max_cycle;Signal;HPM_P1;HPM_P2
2023/09/09 00:02:08;;;;;;;;;;;;;;;23.62;58.20;100550.88;4965883;28;7052;-75
2023/09/09 00:04:34;;;;;;;;;;;;;;;23.60;58.49;100547.41;4967107;28;6966;-76
2023/09/09 00:07:02;;;;;;;;;;;;;;;23.61;59.26;100549.13;4966920;28;6871;-76
2023/09/09 00:09:29;;;;;;;;;;;;;;;23.63;59.08;100542.16;4998496;28;7062;-76
2023/09/09 00:11:55;;;;;;;;;;;;;;;23.65;59.13;100550.84;4966840;28;6804;-76
2023/09/09 00:14:20;;;;;;;;;;;;;;;23.67;59.23;100554.34;4972806;28;7224;-76
2023/09/09 00:16:46;;;;;;;;;;;;;;;23.66;59.00;100551.75;4969550;28;6827;-76
2023/09/09 00:19:11;;;;;;;;;;;;;;;23.64;58.86;100554.34;4982139;28;6963;-76
2023/09/09 00:21:37;;;;;;;;;;;;;;;23.64;59.43;100545.66;4982853;28;7367;-76
2023/09/09 00:24:03;;;;;;;;;;;;;;;23.63;59.00;100542.16;4983358;28;7059;-75
2023/09/09 00:26:31;;;;;;;;;;;;;;;23.65;59.80;100548.25;4973238;28;6968;-76
2023/09/09 00:28:59;;;;;;;;;;;;;;;23.66;59.21;100547.41;4967085;28;7107;-76
2023/09/09 00:31:24;;;;;;;;;;;;;;;23.69;59.31;100536.91;4982512;28;6800;-76
2023/09/09 00:33:50;;;;;;;;;;;;;;;23.72;58.75;100539.50;4982522;28;7012;-76
2023/09/09 00:36:15;;;;;;;;;;;;;;;23.77;58.85;100533.41;4982238;28;6791;-76
2023/09/09 00:38:41;;;;;;;;;;;;;;;23.82;59.11;100534.22;4982517;28;6944;-76
2023/09/09 00:41:15;;;;;;;;;;;;;;;23.84;59.09;100538.59;4966845;28;6929;-75
2023/09/09 00:43:41;;;;;;;;;;;;;;;23.86;58.95;100530.72;4981925;28;6856;-76
2023/09/09 00:46:07;;;;;;;;;;;;;;;23.88;58.59;100531.59;4968394;28;6916;-75
2023/09/09 00:48:33;;;;;;;;;;;;;;;23.90;58.68;100529.81;4982789;28;6951;-76
2023/09/09 00:50:58;;;;;;;;;;;;;;;23.92;58.84;100527.22;4979964;28;6792;-76
2023/09/09 00:53:25;;;;;;;;;;;;;;;23.92;58.38;100528.06;4969820;28;7142;-76
2023/09/09 00:55:51;;;;;;;;;;;;;;;23.92;58.55;100521.97;4997864;28;6819;-76
2023/09/09 00:58:17;;;;;;;;;;;;;;;23.90;58.68;100524.59;4967847;28;7215;-76
2023/09/09 01:00:42;;;;;;;;;;;;;;;23.90;57.91;100521.97;4966627;28;6800;-76
2023/09/09 01:03:09;;;;;;;;;;;;;;;23.89;58.14;100520.25;4967829;28;6971;-76
2023/09/09 01:05:36;;;;;;;;;;;;;;;23.90;58.10;100524.59;4969765;28;6987;-76
2023/09/09 01:08:02;;;;;;;;;;;;;;;23.90;58.54;100526.31;4965193;28;6983;-76
2023/09/09 01:10:27;;;;;;;;;;;;;;;23.89;57.79;100524.59;4965394;28;6872;-75
2023/09/09 01:12:53;;;;;;;;;;;;;;;23.90;58.04;100531.56;4980517;28;6976;-76
2023/09/09 01:15:19;;;;;;;;;;;;;;;23.86;57.58;100526.34;4969808;28;7239;-76
2023/09/09 01:17:44;;;;;;;;;;;;;;;23.85;57.65;100527.22;4965069;28;8694;-76
2023/09/09 01:20:14;;;;;;;;;;;;;;;23.83;57.51;100528.09;4966189;28;7263;-76
2023/09/09 01:22:45;;;;;;;;;;;;;;;23.77;58.06;100522.94;4997344;28;6832;-76
2023/09/09 01:25:11;;;;;;;;;;;;;;;23.72;57.62;100518.56;4964357;28;7259;-76
2023/09/09 01:27:37;;;;;;;;;;;;;;;23.68;57.83;100527.31;4965160;28;6792;-77
2023/09/09 01:30:03;;;;;;;;;;;;;;;23.64;57.64;100527.34;4981693;28;6913;-76
2023/09/09 01:32:29;;;;;;;;;;;;;;;23.61;57.80;100524.72;4973375;28;6964;-76
2023/09/09 01:34:57;;;;;;;;;;;;;;;23.58;58.58;100528.25;4974171;28;7244;-76
2023/09/09 01:37:23;;;;;;;;;;;;;;;23.54;58.71;100519.53;4973204;28;6800;-76
2023/09/09 01:39:49;;;;;;;;;;;;;;;23.54;58.37;100521.25;4980864;28;6795;-76
2023/09/09 01:42:14;;;;;;;;;;;;;;;23.54;58.49;100523.88;4964461;28;7040;-76
2023/09/09 01:44:44;;;;;;;;;;;;;;;23.54;58.76;100522.16;4966025;28;6923;-76
2023/09/09 01:47:10;;;;;;;;;;;;;;;23.56;58.86;100527.34;4980738;28;7259;-76
2023/09/09 01:49:35;;;;;;;;;;;;;;;23.56;58.40;100524.72;4979772;28;6946;-76
2023/09/09 01:52:01;;;;;;;;;;;;;;;23.56;58.59;100527.34;4965875;28;6800;-76
2023/09/09 01:54:26;;;;;;;;;;;;;;;23.55;58.67;100528.22;4981409;28;6887;-76
2023/09/09 01:56:52;;;;;;;;;;;;;;;23.51;58.58;100524.75;4980171;28;7015;-76
2023/09/09 01:59:17;;;;;;;;;;;;;;;23.50;58.21;100527.38;4952565;28;6987;-75
2023/09/09 02:01:43;;;;;;;;;;;;;;;23.44;58.51;100531.75;4965175;28;6796;-76
2023/09/09 02:04:08;;;;;;;;;;;;;;;23.38;58.44;100526.56;4966462;28;6780;-76
2023/09/09 02:06:34;;;;;;;;;;;;;;;23.32;57.69;100531.81;4969759;28;6784;-76
2023/09/09 02:09:01;;;;;;;;;;;;;;;23.22;57.92;100535.28;4981283;28;6784;-75
2023/09/09 02:11:26;;;;;;;;;;;;;;;23.10;58.78;100529.22;4967012;28;6931;-77
2023/09/09 02:13:52;;;;;;;;;;;;;;;23.01;58.66;100526.63;4997844;28;6978;-77
2023/09/09 02:16:18;;;;;;;;;;;;;;;22.93;58.25;100530.97;4981218;28;6844;-76
2023/09/09 02:18:44;;;;;;;;;;;;;;;22.83;58.56;100525.75;4996750;28;7224;-76
2023/09/09 02:21:09;;;;;;;;;;;;;;;22.77;58.37;100532.72;4962354;28;6804;-76
2023/09/09 02:23:39;;;;;;;;;;;;;;;22.69;58.79;100530.09;4965098;28;6934;-76
2023/09/09 02:26:04;;;;;;;;;;;;;;;22.60;59.08;100530.97;4968214;28;6796;-75
2023/09/09 02:28:30;;;;;;;;;;;;;;;22.53;58.79;100540.56;4964327;28;6970;-75
2023/09/09 02:30:56;;;;;;;;;;;;;;;22.45;59.29;100537.03;4965810;28;7237;-75
2023/09/09 02:33:22;;;;;;;;;;;;;;;22.40;59.62;100538.75;4980935;28;6848;-75
2023/09/09 02:35:47;;;;;;;;;;;;;;;22.32;59.78;100541.38;4965490;28;6975;-76
2023/09/09 02:38:13;;;;;;;;;;;;;;;22.27;60.09;100541.34;4967269;28;7105;-76
2023/09/09 02:40:38;;;;;;;;;;;;;;;22.23;60.66;100549.19;4980674;28;6800;-76
2023/09/09 02:43:04;;;;;;;;;;;;;;;22.19;60.52;100545.69;4974436;28;7138;-76
2023/09/09 02:45:29;;;;;;;;;;;;;;;22.15;60.40;100543.94;4966122;28;6779;-76
2023/09/09 02:47:54;;;;;;;;;;;;;;;22.10;60.47;100543.94;4965440;28;7215;-75
2023/09/09 02:50:20;;;;;;;;;;;;;;;22.05;60.35;100543.94;4965386;28;6931;-76
2023/09/09 02:52:49;;;;;;;;;;;;;;;21.99;60.42;100536.06;4981048;28;6866;-76
2023/09/09 02:55:15;;;;;;;;;;;;;;;21.96;60.76;100537.78;4969362;28;7227;-76
2023/09/09 02:57:41;;;;;;;;;;;;;;;21.92;60.52;100544.75;4963949;28;6792;-76
2023/09/09 03:00:09;;;;;;;;;;;;;;;21.86;60.42;100542.97;4971803;28;6863;-76
2023/09/09 03:02:35;;;;;;;;;;;;;;;21.80;60.79;100536.88;4969937;28;7062;-76
2023/09/09 03:05:00;;;;;;;;;;;;;;;21.76;60.70;100543.81;4984809;28;7129;-76
2023/09/09 03:07:26;;;;;;;;;;;;;;;21.72;61.13;100544.69;4994570;28;7422;-75
2023/09/09 03:09:51;;;;;;;;;;;;;;;21.68;60.92;100546.41;5007818;28;6844;-77
2023/09/09 03:12:20;;;;;;;;;;;;;;;21.63;60.94;100541.13;5001502;28;6787;-76
2023/09/09 03:14:47;;;;;;;;;;;;;;;21.61;61.27;100541.97;4969019;28;7223;-76
2023/09/09 03:17:13;;;;;;;;;;;;;;;21.58;61.13;100539.38;4984631;28;7074;-76
2023/09/09 03:19:39;;;;;;;;;;;;;;;21.56;61.37;100538.50;5001549;28;6796;-76
2023/09/09 03:22:04;;;;;;;;;;;;;;;21.53;61.41;100543.69;4971622;28;6863;-76
2023/09/09 03:24:30;;;;;;;;;;;;;;;21.50;61.06;100541.94;4969567;28;7340;-76
2023/09/09 03:26:55;;;;;;;;;;;;;;;21.49;61.23;100548.03;4985277;28;6915;-76
2023/09/09 03:29:21;;;;;;;;;;;;;;;21.46;61.55;100548.88;4969555;28;6991;-76
2023/09/09 03:31:46;;;;;;;;;;;;;;;21.44;61.42;100544.50;4970352;28;6771;-75
2023/09/09 03:34:12;;;;;;;;;;;;;;;21.42;61.43;100548.84;4984432;28;6800;-76
2023/09/09 03:36:37;;;;;;;;;;;;;;;21.40;61.61;100543.63;4967324;28;6978;-76
2023/09/09 03:39:03;;;;;;;;;;;;;;;21.40;61.28;100548.84;4969370;28;7216;-75
2023/09/09 03:41:29;;;;;;;;;;;;;;;21.40;61.90;100548.84;5001184;28;6821;-75
2023/09/09 03:43:55;;;;;;;;;;;;;;;21.39;61.80;100549.69;4964619;28;7078;-76
2023/09/09 03:46:20;;;;;;;;;;;;;;;21.36;61.74;100544.47;4984512;28;6792;-76
2023/09/09 03:48:46;;;;;;;;;;;;;;;21.36;61.87;100549.69;4971042;28;6788;-76
2023/09/09 03:51:12;;;;;;;;;;;;;;;21.35;61.90;100555.78;4982032;28;6856;-76
2023/09/09 03:53:37;;;;;;;;;;;;;;;21.33;62.11;100553.16;4999977;28;7014;-76
2023/09/09 03:56:03;;;;;;;;;;;;;;;21.32;61.81;100555.72;4999558;28;7050;-75
2023/09/09 03:58:29;;;;;;;;;;;;;;;21.31;61.97;100556.59;4968125;28;6875;-76
2023/09/09 04:01:12;;;;;;;;;;;;;;;21.28;61.87;100554.84;4972006;28;6926;-76
2023/09/09 04:03:38;;;;;;;;;;;;;;;21.26;61.83;100558.31;4951103;28;6890;-76
2023/09/09 04:06:08;;;;;;;;;;;;;;;21.25;62.18;100554.84;4973775;28;6978;-76
2023/09/09 04:08:35;;;;;;;;;;;;;;;21.26;62.66;100553.09;4968303;28;7006;-76
2023/09/09 04:11:01;;;;;;;;;;;;;;;21.27;62.96;100549.63;4999025;28;6807;-76
2023/09/09 04:13:26;;;;;;;;;;;;;;;21.27;62.97;100553.09;4999447;28;7242;-75
2023/09/09 04:15:56;;;;;;;;;;;;;;;21.26;63.01;100550.50;4982976;28;7349;-76
2023/09/09 04:18:23;;;;;;;;;;;;;;;21.27;63.08;100554.84;4982073;28;6871;-76
2023/09/09 04:20:48;;;;;;;;;;;;;;;21.27;62.66;100554.84;4973830;28;7183;-75
2023/09/09 04:23:14;;;;;;;;;;;;;;;21.26;62.67;100553.09;4967358;28;6851;-76
2023/09/09 04:25:40;;;;;;;;;;;;;;;21.25;62.97;100544.41;4982562;28;7283;-76
2023/09/09 04:28:09;;;;;;;;;;;;;;;21.27;63.03;100552.25;4983088;28;6975;-76
2023/09/09 04:30:34;;;;;;;;;;;;;;;21.26;63.51;100548.75;4972444;28;6916;-76
2023/09/09 04:33:00;;;;;;;;;;;;;;;21.27;63.35;100540.06;4983858;28;7117;-76
2023/09/09 04:35:25;;;;;;;;;;;;;;;21.29;63.39;100540.09;4982722;28;6772;-76
2023/09/09 04:37:51;;;;;;;;;;;;;;;21.29;63.25;100547.91;4969254;28;6946;-75
2023/09/09 04:40:16;;;;;;;;;;;;;;;21.30;62.94;100552.25;4966897;28;7182;-76
2023/09/09 04:42:42;;;;;;;;;;;;;;;21.30;63.63;100547.03;4971878;28;7374;-76
2023/09/09 04:45:09;;;;;;;;;;;;;;;21.32;63.51;100548.81;4967286;28;6941;-76
2023/09/09 04:47:34;;;;;;;;;;;;;;;21.32;63.79;100550.53;4998448;28;6982;-76
2023/09/09 04:50:00;;;;;;;;;;;;;;;21.32;63.73;100551.41;4981640;28;6787;-76
2023/09/09 04:52:26;;;;;;;;;;;;;;;21.32;63.86;100551.41;4966097;28;6799;-76
2023/09/09 04:54:51;;;;;;;;;;;;;;;21.33;64.10;100555.75;4969883;28;6795;-76
2023/09/09 04:57:17;;;;;;;;;;;;;;;21.34;64.09;100554.88;4966462;28;6987;-76
2023/09/09 04:59:42;;;;;;;;;;;;;;;21.36;64.25;100553.16;4982934;28;6800;-75
2023/09/09 05:02:08;;;;;;;;;;;;;;;21.40;64.14;100555.81;4955830;28;8204;-76
2023/09/09 05:04:33;;;;;;;;;;;;;;;21.41;64.04;100555.78;4998897;28;6780;-76
2023/09/09 05:07:00;;;;;;;;;;;;;;;21.42;64.23;100554.91;4965921;28;7432;-76
2023/09/09 05:09:26;;;;;;;;;;;;;;;21.45;63.97;100557.56;4997849;28;7141;-75
2023/09/09 05:11:52;;;;;;;;;;;;;;;21.48;64.33;100560.19;4998987;28;6872;-75
2023/09/09 05:14:17;;;;;;;;;;;;;;;21.50;64.53;100568.88;4968457;28;6960;-76
2023/09/09 05:16:43;;;;;;;;;;;;;;;21.54;64.39;100561.09;4972025;28;7371;-75
2023/09/09 05:19:08;;;;;;;;;;;;;;;21.57;63.98;100566.31;4968549;28;6995;-76
2023/09/09 05:21:34;;;;;;;;;;;;;;;21.59;64.06;100562.84;4971378;28;6791;-76
2023/09/09 05:23:59;;;;;;;;;;;;;;;21.63;64.25;100567.22;4982337;28;7068;-76
2023/09/09 05:26:25;;;;;;;;;;;;;;;21.67;64.02;100573.34;4971519;28;6783;-75
2023/09/09 05:28:53;;;;;;;;;;;;;;;21.68;64.25;100569.88;4972327;28;6779;-76
2023/09/09 05:31:18;;;;;;;;;;;;;;;21.72;64.22;100573.38;4969375;28;6876;-76
2023/09/09 05:33:43;;;;;;;;;;;;;;;21.74;63.85;100572.53;4981830;28;7107;-76
2023/09/09 05:36:09;;;;;;;;;;;;;;;21.76;64.02;100572.50;4967240;28;6787;-76
2023/09/09 05:38:35;;;;;;;;;;;;;;;21.78;63.50;100576.88;4998491;28;6961;-76
2023/09/09 05:41:01;;;;;;;;;;;;;;;21.83;63.86;100578.66;4981925;28;6973;-76
2023/09/09 05:43:26;;;;;;;;;;;;;;;21.89;63.62;100591.69;4968460;28;6787;-76
2023/09/09 05:45:55;;;;;;;;;;;;;;;21.93;63.71;100590.88;4950510;28;7038;-76
2023/09/09 05:48:21;;;;;;;;;;;;;;;21.98;63.90;100583.06;4981704;28;7070;-76
2023/09/09 05:50:46;;;;;;;;;;;;;;;22.06;63.55;100595.25;4963695;28;6806;-75
2023/09/09 05:53:12;;;;;;;;;;;;;;;22.11;63.74;100592.66;4998316;28;6962;-76
2023/09/09 05:55:37;;;;;;;;;;;;;;;22.18;63.11;100596.16;4981344;28;6787;-75
2023/09/09 05:58:04;;;;;;;;;;;;;;;22.23;63.33;100597.06;4967248;28;7171;-75
2023/09/09 06:00:29;;;;;;;;;;;;;;;22.28;63.61;100600.53;4997318;28;6827;-76
2023/09/09 06:02:55;;;;;;;;;;;;;;;22.35;63.59;100604.03;4999014;28;7205;-76
2023/09/09 06:05:20;;;;;;;;;;;;;;;22.40;63.28;100601.41;4965048;28;6947;-76
2023/09/09 06:07:46;;;;;;;;;;;;;;;22.48;63.19;100605.81;4981609;28;7068;-75
2023/09/09 06:10:11;;;;;;;;;;;;;;;22.56;63.36;100611.06;4981445;28;6788;-75
2023/09/09 06:12:37;;;;;;;;;;;;;;;22.64;62.75;100605.84;4981853;28;6780;-75
2023/09/09 06:15:03;;;;;;;;;;;;;;;22.70;63.00;100605.88;4967427;28;6784;-75
2023/09/09 06:17:28;;;;;;;;;;;;;;;22.77;63.21;100605.88;4964967;28;7150;-75
2023/09/09 06:19:54;;;;;;;;;;;;;;;22.82;62.66;100601.50;4997985;28;6985;-75
2023/09/09 06:22:19;;;;;;;;;;;;;;;22.88;63.22;100604.13;4967246;28;6784;-76
2023/09/09 06:24:45;;;;;;;;;;;;;;;22.94;62.74;100609.38;4965850;28;7122;-76
2023/09/09 06:27:10;;;;;;;;;;;;;;;23.05;63.03;100613.72;4983133;28;7220;-75
2023/09/09 06:29:37;;;;;;;;;;;;;;;23.12;62.54;100618.06;4981601;28;6961;-76
2023/09/09 06:32:03;;;;;;;;;;;;;;;23.21;62.54;100615.44;4981162;28;7064;-76
2023/09/09 06:34:29;;;;;;;;;;;;;;;23.30;62.30;100619.84;4999721;28;6874;-76
2023/09/09 06:36:54;;;;;;;;;;;;;;;23.40;62.70;100613.72;4985210;28;6870;-75
2023/09/09 06:39:20;;;;;;;;;;;;;;;23.49;62.43;100618.03;4985321;28;6776;-75
2023/09/09 06:41:46;;;;;;;;;;;;;;;23.57;62.20;100621.53;4970758;28;7010;-75
2023/09/09 06:44:11;;;;;;;;;;;;;;;23.66;62.07;100631.09;5001362;28;6860;-76
2023/09/09 06:46:38;;;;;;;;;;;;;;;23.74;61.69;100627.56;4985081;28;6792;-75
2023/09/09 06:49:04;;;;;;;;;;;;;;;23.84;61.90;100629.28;4970724;28;6991;-75
2023/09/09 06:51:29;;;;;;;;;;;;;;;23.93;61.54;100634.50;4974672;28;7383;-76
2023/09/09 06:53:54;;;;;;;;;;;;;;;24.02;61.54;100625.75;4983400;28;6983;-76
2023/09/09 06:56:20;;;;;;;;;;;;;;;24.12;61.12;100624.84;4984386;28;7050;-76
2023/09/09 06:58:46;;;;;;;;;;;;;;;24.23;61.40;100627.41;4965298;28;6977;-76
2023/09/09 07:01:11;;;;;;;;;;;;;;;24.36;61.23;100630.84;4975321;28;6847;-75
2023/09/09 07:03:37;;;;;;;;;;;;;;;24.45;61.30;100632.53;4984302;28;6800;-76
2023/09/09 07:06:03;;;;;;;;;;;;;;;24.57;60.70;100641.19;4976463;28;6791;-76
2023/09/09 07:08:29;;;;;;;;;;;;;;;24.67;60.46;100635.03;4953155;28;6987;-75
2023/09/09 07:10:56;;;;;;;;;;;;;;;24.78;60.48;100630.59;4984776;28;6788;-76
2023/09/09 07:13:22;;;;;;;;;;;;;;;24.90;60.35;100634.00;4970969;28;6792;-76
2023/09/09 07:15:52;;;;;;;;;;;;;;;25.00;60.05;100629.56;4984759;28;6991;-75
2023/09/09 07:18:17;;;;;;;;;;;;;;;25.07;59.46;100633.88;4975868;28;7305;-75
2023/09/09 07:20:46;;;;;;;;;;;;;;;25.16;59.49;100635.53;4984259;28;7107;-75
2023/09/09 07:23:16;;;;;;;;;;;;;;;25.26;59.00;100637.19;4983756;28;6808;-76
2023/09/09 07:25:46;;;;;;;;;;;;;;;25.36;59.03;100633.59;5000009;28;6826;-76
2023/09/09 07:28:12;;;;;;;;;;;;;;;25.44;58.83;100636.13;4971252;28;6807;-76
2023/09/09 07:30:38;;;;;;;;;;;;;;;25.54;58.47;100636.97;4983523;28;7055;-76
2023/09/09 07:33:03;;;;;;;;;;;;;;;25.63;58.38;100631.63;4973279;28;7122;-75
2023/09/09 07:35:29;;;;;;;;;;;;;;;25.71;58.30;100642.03;4984459;28;6792;-76
2023/09/09 07:37:54;;;;;;;;;;;;;;;25.81;58.02;100640.16;4964288;28;7182;-76
2023/09/09 07:40:20;;;;;;;;;;;;;;;25.91;57.99;100636.53;4967905;28;7209;-76
2023/09/09 07:42:45;;;;;;;;;;;;;;;26.02;57.92;100638.16;4983473;28;7042;-76
2023/09/09 07:45:11;;;;;;;;;;;;;;;26.10;57.29;100636.31;5001258;28;6860;-76
2023/09/09 07:47:37;;;;;;;;;;;;;;;26.19;56.90;100633.59;4983646;28;6787;-75
2023/09/09 07:50:02;;;;;;;;;;;;;;;26.28;56.94;100637.00;4967301;28;6979;-76
2023/09/09 07:52:28;;;;;;;;;;;;;;;26.39;56.72;100634.22;4983953;28;7187;-76
2023/09/09 07:54:53;;;;;;;;;;;;;;;26.47;56.44;100635.84;4999392;28;6796;-76
2023/09/09 07:57:19;;;;;;;;;;;;;;;26.58;56.49;100646.19;4984302;28;6792;-76
2023/09/09 07:59:44;;;;;;;;;;;;;;;26.67;56.29;100641.69;4966707;28;6979;-75
2023/09/09 08:02:12;;;;;;;;;;;;;;;26.74;56.00;100646.81;4983583;28;7015;-76
2023/09/09 08:04:37;;;;;;;;;;;;;;;26.82;55.88;100638.84;4983921;28;7079;-76
2023/09/09 08:07:03;;;;;;;;;;;;;;;26.91;55.52;100643.09;4971513;28;7276;-76
2023/09/09 08:09:29;;;;;;;;;;;;;;;27.00;55.73;100644.72;4984294;28;6976;-76
2023/09/09 08:11:54;;;;;;;;;;;;;;;27.08;55.41;100641.94;4982929;28;6768;-75
2023/09/09 08:14:19;;;;;;;;;;;;;;;27.19;55.03;100647.88;4983897;28;6868;-76
2023/09/09 08:16:45;;;;;;;;;;;;;;;27.29;55.27;100653.88;4970709;28;6780;-76
2023/09/09 08:19:10;;;;;;;;;;;;;;;27.39;54.82;100652.81;4983788;28;7089;-76
2023/09/09 08:21:36;;;;;;;;;;;;;;;27.50;55.01;100655.22;4999506;28;6792;-77
2023/09/09 08:24:01;;;;;;;;;;;;;;;27.58;54.91;100648.09;4973981;28;7036;-76
2023/09/09 08:26:28;;;;;;;;;;;;;;;27.69;54.79;100657.53;4966964;28;6944;-76
2023/09/09 08:28:54;;;;;;;;;;;;;;;27.79;54.30;100655.63;4966202;28;7624;-76
2023/09/09 08:31:20;;;;;;;;;;;;;;;27.87;54.20;100653.69;4982670;28;7265;-76
2023/09/09 08:33:46;;;;;;;;;;;;;;;27.95;53.45;100662.28;4983516;28;6923;-75
2023/09/09 08:36:11;;;;;;;;;;;;;;;28.03;53.75;100656.00;4974961;28;6842;-75
2023/09/09 08:38:37;;;;;;;;;;;;;;;28.13;53.33;100660.16;4992024;28;8481;-75
2023/09/09 08:41:11;;;;;;;;;;;;;;;28.22;53.19;100656.53;4999192;28;6848;-75
2023/09/09 08:43:56;;;;;;;;;;;;;;;28.32;52.88;100660.69;4982880;28;7070;-76
2023/09/09 08:46:22;;;;;;;;;;;;;;;28.40;53.72;100658.75;4966061;28;7115;-76
2023/09/09 08:48:51;;;;;;;;;;;;;;;28.52;53.09;100662.84;4983207;28;6800;-76
2023/09/09 08:51:19;;;;;;;;;;;;;;;28.60;52.88;100652.16;4982552;28;7178;-76
2023/09/09 08:53:45;;;;;;;;;;;;;;;28.71;52.90;100649.25;4998589;28;7003;-75
2023/09/09 08:56:15;;;;;;;;;;;;;;;28.81;52.56;100655.19;4966494;28;6937;-76
2023/09/09 08:58:41;;;;;;;;;;;;;;;28.91;52.53;100653.19;4981963;28;7428;-76
2023/09/09 09:01:07;;;;;;;;;;;;;;;28.99;52.43;100653.03;4982223;28;6994;-76
2023/09/09 09:03:33;;;;;;;;;;;;;;;29.06;52.49;100654.59;4983287;28;6966;-76
2023/09/09 09:06:02;;;;;;;;;;;;;;;29.14;52.60;100655.25;4968218;28;7294;-76
2023/09/09 09:08:27;;;;;;;;;;;;;;;29.22;52.15;100658.56;4998481;28;6999;-76
2023/09/09 09:10:57;;;;;;;;;;;;;;;29.33;51.45;100657.41;4973889;28;6860;-76
2023/09/09 09:13:22;;;;;;;;;;;;;;;29.45;51.99;100662.41;4968949;28;7233;-76
2023/09/09 09:15:48;;;;;;;;;;;;;;;29.57;51.06;100652.44;4966782;28;7027;-76
2023/09/09 09:18:13;;;;;;;;;;;;;;;29.68;51.46;100655.63;4997616;28;7022;-76
2023/09/09 09:20:40;;;;;;;;;;;;;;;29.76;50.71;100651.00;4999055;28;6940;-76
2023/09/09 09:23:10;;;;;;;;;;;;;;;29.87;50.18;100653.31;4972655;28;7047;-76
2023/09/09 09:25:44;;;;;;;;;;;;;;;29.95;50.56;100661.06;4982180;28;7137;-76
2023/09/09 09:28:12;;;;;;;;;;;;;;;30.03;49.79;100653.75;4997915;28;6788;-76
2023/09/09 09:30:38;;;;;;;;;;;;;;;30.14;50.31;100657.91;4975862;28;6804;-76
2023/09/09 09:33:03;;;;;;;;;;;;;;;30.21;49.26;100655.03;5005749;28;6843;-76
2023/09/09 09:35:31;;;;;;;;;;;;;;;30.30;49.49;100650.38;4974387;28;7216;-76
2023/09/09 09:38:00;;;;;;;;;;;;;;;30.38;49.72;100655.41;4964420;28;7320;-77
2023/09/09 09:40:27;;;;;;;;;;;;;;;30.48;49.83;100663.03;4982725;28;8295;-76
2023/09/09 09:42:52;;;;;;;;;;;;;;;30.55;48.42;100653.09;4981657;28;6792;-76
2023/09/09 09:45:22;;;;;;;;;;;;;;;30.63;49.03;100650.22;4965822;28;7160;-76
2023/09/09 09:47:48;;;;;;;;;;;;;;;30.72;48.37;100651.75;4981411;28;6800;-76
2023/09/09 09:50:32;;;;;;;;;;;;;;;30.83;48.52;100652.25;4982412;28;8453;-76
2023/09/09 09:52:59;;;;;;;;;;;;;;;30.90;48.23;100648.50;4965041;28;7129;-76
2023/09/09 09:55:26;;;;;;;;;;;;;;;31.00;48.27;100648.16;4981191;28;6799;-76
2023/09/09 09:57:54;;;;;;;;;;;;;;;31.09;47.71;100647.84;4957333;28;6857;-76
2023/09/09 10:00:21;;;;;;;;;;;;;;;31.21;47.77;100651.00;4966895;28;7449;-76
2023/09/09 10:02:51;;;;;;;;;;;;;;;31.59;47.66;100641.72;4982414;28;7029;-76
2023/09/09 10:05:20;;;;;;;;;;;;;;;32.44;46.32;100642.13;4953510;28;7055;-76
2023/09/09 10:07:51;;;;;;;;;;;;;;;33.57;44.38;100631.25;4982565;28;7019;-76
2023/09/09 10:10:20;;;;;;;;;;;;;;;34.72;42.47;100639.19;4971411;28;6837;-76
2023/09/09 10:13:10;;;;;;;;;;;;;;;35.92;40.30;100632.16;4987403;28;7009;-74
2023/09/09 10:15:36;;;;;;;;;;;;;;;37.09;39.10;100629.13;5002351;28;6915;-74
2023/09/09 10:18:02;;;;;;;;;;;;;;;38.11;37.95;100632.63;4972468;28;6959;-74
2023/09/09 10:20:29;;;;;;;;;;;;;;;39.03;36.23;100631.97;4975825;28;6792;-74
2023/09/09 10:22:59;;;;;;;;;;;;;;;39.91;34.96;100629.44;4985592;28;6860;-74
2023/09/09 10:25:31;;;;;;;;;;;;;;;40.74;33.59;100638.50;4986810;28;7179;-74
2023/09/09 10:27:57;;;;;;;;;;;;;;;41.41;32.41;100629.88;5001526;28;6808;-74
2023/09/09 10:30:24;;;;;;;;;;;;;;;41.97;31.49;100630.81;4972015;28;7152;-74
2023/09/09 10:32:50;;;;;;;;;;;;;;;42.45;30.83;100634.97;4968392;28;6979;-74
2023/09/09 10:35:17;;;;;;;;;;;;;;;42.85;29.96;100630.72;4984985;28;6975;-74
2023/09/09 10:37:46;;;;;;;;;;;;;;;43.27;29.39;100633.41;4969867;28;6994;-74
2023/09/09 10:40:13;;;;;;;;;;;;;;;43.70;28.92;100633.28;4986465;28;6820;-74
2023/09/09 10:42:41;;;;;;;;;;;;;;;43.98;27.96;100633.53;4985688;28;6988;-74
2023/09/09 10:45:29;;;;;;;;;;;;;;;44.18;27.47;100636.28;4985495;28;6978;-74
2023/09/09 10:48:03;;;;;;;;;;;;;;;44.39;27.34;100638.84;4967828;28;6939;-74
2023/09/09 10:50:59;;;;;;;;;;;;;;;44.60;26.74;100632.44;4983073;28;7024;-74
2023/09/09 10:53:26;;;;;;;;;;;;;;;44.79;26.61;100634.25;4969743;28;6816;-74
2023/09/09 10:55:54;;;;;;;;;;;;;;;44.99;26.23;100635.09;5001350;28;7145;-74
2023/09/09 10:58:21;;;;;;;;;;;;;;;45.18;25.80;100636.88;4985210;28;6819;-74
2023/09/09 11:00:48;;;;;;;;;;;;;;;45.31;25.52;100630.28;4969405;28;6976;-74
2023/09/09 11:03:28;;;;;;;;;;;;;;;45.46;25.55;100628.81;5001003;28;6800;-74
2023/09/09 11:06:19;;;;;;;;;;;;;;;45.66;25.00;100636.81;5000692;28;6784;-74
2023/09/09 11:08:47;;;;;;;;;;;;;;;45.74;24.83;100636.91;4983267;28;6824;-74
2023/09/09 11:11:14;;;;;;;;;;;;;;;45.81;24.70;100630.94;4983858;28;6986;-74
2023/09/09 11:14:03;;;;;;;;;;;;;;;45.83;24.34;100626.19;4969363;28;6787;-74
2023/09/09 11:16:33;;;;;;;;;;;;;;;45.83;24.02;100632.47;4999872;28;6852;-74
2023/09/09 11:19:10;;;;;;;;;;;;;;;45.83;23.79;100621.66;4969169;28;6966;-74
2023/09/09 11:21:50;;;;;;;;;;;;;;;45.66;23.72;100617.03;4983898;28;7086;-74
2023/09/09 11:24:17;;;;;;;;;;;;;;;45.59;23.98;100627.63;4983951;28;6841;-74
2023/09/09 11:26:45;;;;;;;;;;;;;;;45.63;23.26;100629.00;4985017;28;7023;-74
2023/09/09 11:29:11;;;;;;;;;;;;;;;45.68;22.49;100629.38;4969199;28;6832;-74
2023/09/09 11:31:37;;;;;;;;;;;;;;;45.56;22.36;100626.06;4969492;28;6824;-74
2023/09/09 11:34:03;;;;;;;;;;;;;;;45.39;22.15;100619.56;4985511;28;7008;-74
2023/09/09 11:36:29;;;;;;;;;;;;;;;45.05;22.17;100631.78;4984190;28;6995;-74
2023/09/09 11:39:03;;;;;;;;;;;;;;;44.79;22.67;100631.53;4968088;28;6972;-74
2023/09/09 11:41:32;;;;;;;;;;;;;;;44.64;22.79;100634.72;4999080;28;6811;-74
2023/09/09 11:43:59;;;;;;;;;;;;;;;44.60;23.19;100627.88;4983497;28;7007;-74
2023/09/09 11:46:25;;;;;;;;;;;;;;;44.75;23.13;100630.16;4985598;28;7011;-74
2023/09/09 11:48:51;;;;;;;;;;;;;;;44.94;23.17;100627.41;5000381;28;7234;-74
2023/09/09 11:51:18;;;;;;;;;;;;;;;45.18;23.02;100623.34;4983631;28;6816;-73
2023/09/09 11:53:46;;;;;;;;;;;;;;;45.30;22.98;100624.00;4967316;28;7025;-74
2023/09/09 11:56:15;;;;;;;;;;;;;;;45.43;22.49;100629.13;4983757;28;6981;-74
2023/09/09 11:58:42;;;;;;;;;;;;;;;45.41;22.36;100619.44;4999848;28;7011;-74
2023/09/09 12:01:08;;;;;;;;;;;;;;;45.30;22.36;100625.88;4999833;28;6888;-74
2023/09/09 12:03:34;;;;;;;;;;;;;;;45.22;22.02;100630.19;4983601;28;7208;-74
2023/09/09 12:06:02;;;;;;;;;;;;;;;45.15;22.13;100625.50;4983620;28;6981;-74
2023/09/09 12:08:28;;;;;;;;;;;;;;;45.08;22.34;100630.66;5000084;28;6992;-74
2023/09/09 12:10:55;;;;;;;;;;;;;;;44.99;21.98;100631.53;4966589;28;7149;-74
2023/09/09 12:13:21;;;;;;;;;;;;;;;44.74;22.35;100618.47;4976491;28;7132;-74
2023/09/09 12:15:48;;;;;;;;;;;;;;;44.62;22.64;100622.34;4967991;28;6985;-74
2023/09/09 12:18:14;;;;;;;;;;;;;;;44.56;22.82;100623.75;4967006;28;6872;-74
2023/09/09 12:20:59;;;;;;;;;;;;;;;44.50;22.73;100625.19;4983899;28;6882;-74
2023/09/09 12:23:28;;;;;;;;;;;;;;;44.51;22.63;100617.91;4983093;28;6994;-74
2023/09/09 12:25:54;;;;;;;;;;;;;;;44.32;22.35;100624.19;4982811;28;6879;-74
2023/09/09 12:28:19;;;;;;;;;;;;;;;43.96;22.51;100622.03;4982667;28;6843;-74
2023/09/09 12:30:45;;;;;;;;;;;;;;;43.57;22.94;100622.75;4965564;28;6931;-74
2023/09/09 12:33:13;;;;;;;;;;;;;;;43.41;22.97;100621.44;4967173;28;6856;-74
2023/09/09 12:35:48;;;;;;;;;;;;;;;43.22;23.17;100616.78;4966196;28;7035;-74
2023/09/09 12:38:14;;;;;;;;;;;;;;;43.23;23.87;100623.88;4967520;28;6819;-74
2023/09/09 12:40:46;;;;;;;;;;;;;;;43.35;24.23;100621.97;4999390;28;6994;-74
2023/09/09 12:43:12;;;;;;;;;;;;;;;43.51;24.02;100616.06;4968121;28;6895;-74
2023/09/09 12:45:52;;;;;;;;;;;;;;;43.66;24.16;100621.09;4998733;28;6838;-74
2023/09/09 12:48:19;;;;;;;;;;;;;;;43.73;22.95;100614.13;4967141;28;6815;-74